sensor_id;sensor_type;location;lat;lon;timestamp;temperature;humidity
20512;DHT22;10414;52.074;5.126;2023-12-20T00:01:05;7.60;99.90
20512;DHT22;10414;52.074;5.126;2023-12-20T00:03:32;7.50;99.90
20512;DHT22;10414;52.074;5.126;2023-12-20T00:05:58;7.60;99.90
20512;DHT22;10414;52.074;5.126;2023-12-20T00:08:25;7.80;99.90
20512;DHT22;10414;52.074;5.126;2023-12-20T00:10:52;7.70;99.90
20512;DHT22;10414;52.074;5.126;2023-12-20T00:13:19;7.50;99.90
20512;DHT22;10414;52.074;5.126;2023-12-20T00:15:47;7.70;99.90
20512;DHT22;10414;52.074;5.126;2023-12-20T00:18:14;7.60;99.90
20512;DHT22;10414;52.074;5.126;2023-12-20T00:20:41;7.60;99.90
20512;DHT22;10414;52.074;5.126;2023-12-20T00:23:08;7.70;99.90
20512;DHT22;10414;52.074;5.126;2023-12-20T00:25:35;7.70;99.90
20512;DHT22;10414;52.074;5.126;2023-12-20T00:28:01;7.80;99.90
20512;DHT22;10414;52.074;5.126;2023-12-20T00:30:28;7.60;99.90
20512;DHT22;10414;52.074;5.126;2023-12-20T00:32:56;7.50;99.90
20512;DHT22;10414;52.074;5.126;2023-12-20T00:35:23;7.40;99.90
20512;DHT22;10414;52.074;5.126;2023-12-20T00:37:50;7.40;99.90
20512;DHT22;10414;52.074;5.126;2023-12-20T00:40:17;7.40;99.90
20512;DHT22;10414;52.074;5.126;2023-12-20T00:42:44;7.30;99.90
20512;DHT22;10414;52.074;5.126;2023-12-20T00:45:12;7.40;99.90
20512;DHT22;10414;52.074;5.126;2023-12-20T00:47:39;7.30;99.90
20512;DHT22;10414;52.074;5.126;2023-12-20T00:50:08;7.50;99.90
20512;DHT22;10414;52.074;5.126;2023-12-20T00:52:36;7.60;99.90
20512;DHT22;10414;52.074;5.126;2023-12-20T00:55:04;7.60;99.90
20512;DHT22;10414;52.074;5.126;2023-12-20T00:57:31;7.50;99.90
20512;DHT22;10414;52.074;5.126;2023-12-20T00:59:59;7.50;99.90
20512;DHT22;10414;52.074;5.126;2023-12-20T01:02:26;7.40;99.90
20512;DHT22;10414;52.074;5.126;2023-12-20T01:04:53;7.20;99.90
20512;DHT22;10414;52.074;5.126;2023-12-20T01:07:21;7.20;99.90
20512;DHT22;10414;52.074;5.126;2023-12-20T01:09:48;7.20;99.90
20512;DHT22;10414;52.074;5.126;2023-12-20T01:12:14;7.30;99.90
20512;DHT22;10414;52.074;5.126;2023-12-20T01:14:41;7.70;99.90
20512;DHT22;10414;52.074;5.126;2023-12-20T01:17:08;7.60;99.90
20512;DHT22;10414;52.074;5.126;2023-12-20T01:19:35;7.50;99.90
20512;DHT22;10414;52.074;5.126;2023-12-20T01:22:02;7.50;99.90
20512;DHT22;10414;52.074;5.126;2023-12-20T01:24:30;7.60;99.90
20512;DHT22;10414;52.074;5.126;2023-12-20T01:26:57;7.80;99.90
20512;DHT22;10414;52.074;5.126;2023-12-20T01:29:24;7.70;99.90
20512;DHT22;10414;52.074;5.126;2023-12-20T01:31:51;8.00;99.90
20512;DHT22;10414;52.074;5.126;2023-12-20T01:34:18;7.90;99.90
20512;DHT22;10414;52.074;5.126;2023-12-20T01:36:45;7.90;99.90
20512;DHT22;10414;52.074;5.126;2023-12-20T01:39:11;7.90;99.90
20512;DHT22;10414;52.074;5.126;2023-12-20T01:41:40;7.70;99.90
20512;DHT22;10414;52.074;5.126;2023-12-20T01:44:07;7.70;99.90
20512;DHT22;10414;52.074;5.126;2023-12-20T01:46:34;7.70;99.90
20512;DHT22;10414;52.074;5.126;2023-12-20T01:49:01;7.70;99.90
20512;DHT22;10414;52.074;5.126;2023-12-20T01:51:28;7.70;99.90
20512;DHT22;10414;52.074;5.126;2023-12-20T01:53:56;7.80;99.90
20512;DHT22;10414;52.074;5.126;2023-12-20T01:56:25;7.90;99.90
20512;DHT22;10414;52.074;5.126;2023-12-20T01:58:55;7.90;99.90
20512;DHT22;10414;52.074;5.126;2023-12-20T02:01:22;7.80;99.90
20512;DHT22;10414;52.074;5.126;2023-12-20T02:03:50;7.80;99.90
20512;DHT22;10414;52.074;5.126;2023-12-20T02:06:18;7.80;99.90
20512;DHT22;10414;52.074;5.126;2023-12-20T02:08:45;7.90;99.90
20512;DHT22;10414;52.074;5.126;2023-12-20T02:11:12;7.80;99.90
20512;DHT22;10414;52.074;5.126;2023-12-20T02:13:39;7.70;99.90
20512;DHT22;10414;52.074;5.126;2023-12-20T02:16:07;7.90;99.90
20512;DHT22;10414;52.074;5.126;2023-12-20T02:18:35;8.00;99.90
20512;DHT22;10414;52.074;5.126;2023-12-20T02:21:04;8.00;99.90
20512;DHT22;10414;52.074;5.126;2023-12-20T02:23:32;8.00;99.90
20512;DHT22;10414;52.074;5.126;2023-12-20T02:25:59;8.00;99.90
20512;DHT22;10414;52.074;5.126;2023-12-20T02:28:26;8.10;99.90
20512;DHT22;10414;52.074;5.126;2023-12-20T02:30:54;8.10;99.90
20512;DHT22;10414;52.074;5.126;2023-12-20T02:33:20;8.10;99.90
20512;DHT22;10414;52.074;5.126;2023-12-20T02:35:48;8.10;99.90
20512;DHT22;10414;52.074;5.126;2023-12-20T02:38:15;8.10;99.90
20512;DHT22;10414;52.074;5.126;2023-12-20T02:40:43;8.10;99.90
20512;DHT22;10414;52.074;5.126;2023-12-20T02:43:10;8.20;99.90
20512;DHT22;10414;52.074;5.126;2023-12-20T02:45:37;8.10;99.90
20512;DHT22;10414;52.074;5.126;2023-12-20T02:48:04;8.40;99.90
20512;DHT22;10414;52.074;5.126;2023-12-20T02:50:31;8.30;99.90
20512;DHT22;10414;52.074;5.126;2023-12-20T02:52:58;8.40;99.90
20512;DHT22;10414;52.074;5.126;2023-12-20T02:55:25;8.40;99.90
20512;DHT22;10414;52.074;5.126;2023-12-20T02:57:53;8.50;99.90
20512;DHT22;10414;52.074;5.126;2023-12-20T03:00:20;8.40;99.90
20512;DHT22;10414;52.074;5.126;2023-12-20T03:02:47;8.40;99.90
20512;DHT22;10414;52.074;5.126;2023-12-20T03:05:14;8.60;99.90
20512;DHT22;10414;52.074;5.126;2023-12-20T03:07:41;8.60;99.90
20512;DHT22;10414;52.074;5.126;2023-12-20T03:10:08;8.60;99.90
20512;DHT22;10414;52.074;5.126;2023-12-20T03:12:35;8.60;99.90
20512;DHT22;10414;52.074;5.126;2023-12-20T03:15:04;8.60;99.90
20512;DHT22;10414;52.074;5.126;2023-12-20T03:17:31;8.80;99.90
20512;DHT22;10414;52.074;5.126;2023-12-20T03:19:58;8.60;99.90
20512;DHT22;10414;52.074;5.126;2023-12-20T03:22:25;8.50;99.90
20512;DHT22;10414;52.074;5.126;2023-12-20T03:24:51;8.40;99.90
20512;DHT22;10414;52.074;5.126;2023-12-20T03:27:18;8.40;99.90
20512;DHT22;10414;52.074;5.126;2023-12-20T03:29:46;8.40;99.90
20512;DHT22;10414;52.074;5.126;2023-12-20T03:32:14;8.40;99.90
20512;DHT22;10414;52.074;5.126;2023-12-20T03:34:41;8.40;99.90
20512;DHT22;10414;52.074;5.126;2023-12-20T03:37:08;8.50;99.90
20512;DHT22;10414;52.074;5.126;2023-12-20T03:39:35;8.50;99.90
20512;DHT22;10414;52.074;5.126;2023-12-20T03:42:02;8.40;99.90
20512;DHT22;10414;52.074;5.126;2023-12-20T03:44:28;8.40;99.90
20512;DHT22;10414;52.074;5.126;2023-12-20T03:46:55;8.50;99.90
20512;DHT22;10414;52.074;5.126;2023-12-20T03:49:23;8.40;99.90
20512;DHT22;10414;52.074;5.126;2023-12-20T03:51:51;8.40;99.90
20512;DHT22;10414;52.074;5.126;2023-12-20T03:54:18;8.30;99.90
20512;DHT22;10414;52.074;5.126;2023-12-20T03:56:45;8.20;99.90
20512;DHT22;10414;52.074;5.126;2023-12-20T03:59:12;8.00;99.90
20512;DHT22;10414;52.074;5.126;2023-12-20T04:01:43;8.00;99.90
20512;DHT22;10414;52.074;5.126;2023-12-20T04:04:10;8.20;99.90
20512;DHT22;10414;52.074;5.126;2023-12-20T04:06:38;8.20;99.90
20512;DHT22;10414;52.074;5.126;2023-12-20T04:09:05;8.10;99.90
20512;DHT22;10414;52.074;5.126;2023-12-20T04:11:32;8.10;99.90
20512;DHT22;10414;52.074;5.126;2023-12-20T04:13:59;8.20;99.90
20512;DHT22;10414;52.074;5.126;2023-12-20T04:16:26;8.30;99.90
20512;DHT22;10414;52.074;5.126;2023-12-20T04:18:53;8.40;99.90
20512;DHT22;10414;52.074;5.126;2023-12-20T04:21:20;8.40;99.90
20512;DHT22;10414;52.074;5.126;2023-12-20T04:23:48;8.50;99.90
20512;DHT22;10414;52.074;5.126;2023-12-20T04:26:14;8.50;99.90
20512;DHT22;10414;52.074;5.126;2023-12-20T04:28:41;8.50;99.90
20512;DHT22;10414;52.074;5.126;2023-12-20T04:31:08;8.50;99.90
20512;DHT22;10414;52.074;5.126;2023-12-20T04:33:35;8.60;99.90
20512;DHT22;10414;52.074;5.126;2023-12-20T04:36:02;8.60;99.90
20512;DHT22;10414;52.074;5.126;2023-12-20T04:38:30;8.60;99.90
20512;DHT22;10414;52.074;5.126;2023-12-20T04:40:58;8.60;99.90
20512;DHT22;10414;52.074;5.126;2023-12-20T04:43:25;8.70;99.90
20512;DHT22;10414;52.074;5.126;2023-12-20T04:45:52;8.80;99.90
20512;DHT22;10414;52.074;5.126;2023-12-20T04:48:18;8.80;99.90
20512;DHT22;10414;52.074;5.126;2023-12-20T04:50:45;8.70;99.90
20512;DHT22;10414;52.074;5.126;2023-12-20T04:53:12;8.70;99.90
20512;DHT22;10414;52.074;5.126;2023-12-20T04:55:39;8.60;99.90
20512;DHT22;10414;52.074;5.126;2023-12-20T04:58:07;8.50;99.90
20512;DHT22;10414;52.074;5.126;2023-12-20T05:00:34;8.60;99.90
20512;DHT22;10414;52.074;5.126;2023-12-20T05:03:01;8.50;99.90
20512;DHT22;10414;52.074;5.126;2023-12-20T05:05:27;8.50;99.90
20512;DHT22;10414;52.074;5.126;2023-12-20T05:07:56;8.50;99.90
20512;DHT22;10414;52.074;5.126;2023-12-20T05:10:22;8.60;99.90
20512;DHT22;10414;52.074;5.126;2023-12-20T05:12:49;8.60;99.90
20512;DHT22;10414;52.074;5.126;2023-12-20T05:15:18;8.60;99.90
20512;DHT22;10414;52.074;5.126;2023-12-20T05:17:45;8.70;99.90
20512;DHT22;10414;52.074;5.126;2023-12-20T05:20:11;8.60;99.90
20512;DHT22;10414;52.074;5.126;2023-12-20T05:22:38;8.70;99.90
20512;DHT22;10414;52.074;5.126;2023-12-20T05:25:06;8.70;99.90
20512;DHT22;10414;52.074;5.126;2023-12-20T05:27:33;8.70;99.90
20512;DHT22;10414;52.074;5.126;2023-12-20T05:30:00;8.70;99.90
20512;DHT22;10414;52.074;5.126;2023-12-20T05:32:28;8.70;99.90
20512;DHT22;10414;52.074;5.126;2023-12-20T05:34:55;8.60;99.90
20512;DHT22;10414;52.074;5.126;2023-12-20T05:37:22;8.70;99.90
20512;DHT22;10414;52.074;5.126;2023-12-20T05:39:49;8.60;99.90
20512;DHT22;10414;52.074;5.126;2023-12-20T05:42:15;8.70;99.90
20512;DHT22;10414;52.074;5.126;2023-12-20T05:44:42;8.70;99.90
20512;DHT22;10414;52.074;5.126;2023-12-20T05:47:09;8.60;99.90
20512;DHT22;10414;52.074;5.126;2023-12-20T05:49:37;8.60;99.90
20512;DHT22;10414;52.074;5.126;2023-12-20T05:52:04;8.70;99.90
20512;DHT22;10414;52.074;5.126;2023-12-20T05:54:32;8.60;99.90
20512;DHT22;10414;52.074;5.126;2023-12-20T05:56:59;8.80;99.90
20512;DHT22;10414;52.074;5.126;2023-12-20T05:59:27;8.90;99.90
20512;DHT22;10414;52.074;5.126;2023-12-20T06:01:53;8.70;99.90
20512;DHT22;10414;52.074;5.126;2023-12-20T06:04:20;8.80;99.90
20512;DHT22;10414;52.074;5.126;2023-12-20T06:06:48;8.80;99.90
20512;DHT22;10414;52.074;5.126;2023-12-20T06:09:15;8.80;99.90
20512;DHT22;10414;52.074;5.126;2023-12-20T06:11:42;8.80;99.90
20512;DHT22;10414;52.074;5.126;2023-12-20T06:14:09;8.90;99.90
20512;DHT22;10414;52.074;5.126;2023-12-20T06:16:36;8.90;99.90
20512;DHT22;10414;52.074;5.126;2023-12-20T06:19:03;8.90;99.90
20512;DHT22;10414;52.074;5.126;2023-12-20T06:21:30;8.90;99.90
20512;DHT22;10414;52.074;5.126;2023-12-20T06:23:58;8.80;99.90
20512;DHT22;10414;52.074;5.126;2023-12-20T06:26:25;8.80;99.90
20512;DHT22;10414;52.074;5.126;2023-12-20T06:28:52;8.80;99.90
20512;DHT22;10414;52.074;5.126;2023-12-20T06:31:19;8.80;99.90
20512;DHT22;10414;52.074;5.126;2023-12-20T06:33:49;8.80;99.90
20512;DHT22;10414;52.074;5.126;2023-12-20T06:36:23;8.90;99.90
20512;DHT22;10414;52.074;5.126;2023-12-20T06:38:49;8.90;99.90
20512;DHT22;10414;52.074;5.126;2023-12-20T06:41:18;8.80;99.90
20512;DHT22;10414;52.074;5.126;2023-12-20T06:43:45;8.90;99.90
20512;DHT22;10414;52.074;5.126;2023-12-20T06:46:12;8.90;99.90
20512;DHT22;10414;52.074;5.126;2023-12-20T06:48:38;8.90;99.90
20512;DHT22;10414;52.074;5.126;2023-12-20T06:51:06;8.90;99.90
20512;DHT22;10414;52.074;5.126;2023-12-20T06:53:33;8.90;99.90
20512;DHT22;10414;52.074;5.126;2023-12-20T06:55:59;8.90;99.90
20512;DHT22;10414;52.074;5.126;2023-12-20T06:58:28;8.90;99.90
20512;DHT22;10414;52.074;5.126;2023-12-20T07:00:54;8.90;99.90
20512;DHT22;10414;52.074;5.126;2023-12-20T07:03:21;9.00;99.90
20512;DHT22;10414;52.074;5.126;2023-12-20T07:05:48;9.10;99.90
20512;DHT22;10414;52.074;5.126;2023-12-20T07:08:15;9.10;99.90
20512;DHT22;10414;52.074;5.126;2023-12-20T07:10:42;9.00;99.90
20512;DHT22;10414;52.074;5.126;2023-12-20T07:13:09;9.00;99.90
20512;DHT22;10414;52.074;5.126;2023-12-20T07:15:37;9.10;99.90
20512;DHT22;10414;52.074;5.126;2023-12-20T07:18:04;9.20;99.90
20512;DHT22;10414;52.074;5.126;2023-12-20T07:20:32;9.10;99.90
20512;DHT22;10414;52.074;5.126;2023-12-20T07:22:59;9.10;99.90
20512;DHT22;10414;52.074;5.126;2023-12-20T07:25:26;9.00;99.90
20512;DHT22;10414;52.074;5.126;2023-12-20T07:27:53;9.00;99.90
20512;DHT22;10414;52.074;5.126;2023-12-20T07:30:20;9.10;99.90
20512;DHT22;10414;52.074;5.126;2023-12-20T07:32:48;9.00;99.90
20512;DHT22;10414;52.074;5.126;2023-12-20T07:35:15;8.90;99.90
20512;DHT22;10414;52.074;5.126;2023-12-20T07:37:42;8.90;99.90
20512;DHT22;10414;52.074;5.126;2023-12-20T07:40:10;9.00;99.90
20512;DHT22;10414;52.074;5.126;2023-12-20T07:42:37;9.00;99.90
20512;DHT22;10414;52.074;5.126;2023-12-20T07:45:05;9.00;99.90
20512;DHT22;10414;52.074;5.126;2023-12-20T07:47:31;9.00;99.90
20512;DHT22;10414;52.074;5.126;2023-12-20T07:50:00;9.00;99.90
20512;DHT22;10414;52.074;5.126;2023-12-20T07:52:27;9.10;99.90
20512;DHT22;10414;52.074;5.126;2023-12-20T07:54:54;9.10;99.90
20512;DHT22;10414;52.074;5.126;2023-12-20T07:57:21;9.20;99.90
20512;DHT22;10414;52.074;5.126;2023-12-20T07:59:48;9.10;99.90
20512;DHT22;10414;52.074;5.126;2023-12-20T08:02:15;9.20;99.90
20512;DHT22;10414;52.074;5.126;2023-12-20T08:04:42;9.10;99.90
20512;DHT22;10414;52.074;5.126;2023-12-20T08:07:10;9.10;99.90
20512;DHT22;10414;52.074;5.126;2023-12-20T08:09:36;9.20;99.90
20512;DHT22;10414;52.074;5.126;2023-12-20T08:12:04;9.20;99.90
20512;DHT22;10414;52.074;5.126;2023-12-20T08:14:31;9.20;99.90
20512;DHT22;10414;52.074;5.126;2023-12-20T08:16:58;9.40;99.90
20512;DHT22;10414;52.074;5.126;2023-12-20T08:19:24;9.30;99.90
20512;DHT22;10414;52.074;5.126;2023-12-20T08:21:51;9.40;99.90
20512;DHT22;10414;52.074;5.126;2023-12-20T08:24:20;9.20;99.90
20512;DHT22;10414;52.074;5.126;2023-12-20T08:26:47;9.20;99.90
20512;DHT22;10414;52.074;5.126;2023-12-20T08:29:14;9.20;99.90
20512;DHT22;10414;52.074;5.126;2023-12-20T08:31:42;9.20;99.90
20512;DHT22;10414;52.074;5.126;2023-12-20T08:34:09;9.30;99.90
20512;DHT22;10414;52.074;5.126;2023-12-20T08:36:37;9.40;99.90
20512;DHT22;10414;52.074;5.126;2023-12-20T08:39:04;9.60;99.90
20512;DHT22;10414;52.074;5.126;2023-12-20T08:41:35;9.60;99.90
20512;DHT22;10414;52.074;5.126;2023-12-20T08:44:02;9.50;99.90
20512;DHT22;10414;52.074;5.126;2023-12-20T08:46:29;9.30;99.90
20512;DHT22;10414;52.074;5.126;2023-12-20T08:48:56;9.20;99.90
20512;DHT22;10414;52.074;5.126;2023-12-20T08:51:23;9.30;99.90
20512;DHT22;10414;52.074;5.126;2023-12-20T08:53:51;9.30;99.90
20512;DHT22;10414;52.074;5.126;2023-12-20T08:56:20;9.40;99.90
20512;DHT22;10414;52.074;5.126;2023-12-20T08:58:48;9.30;99.90
20512;DHT22;10414;52.074;5.126;2023-12-20T09:01:15;9.30;99.90
20512;DHT22;10414;52.074;5.126;2023-12-20T09:03:42;9.30;99.90
20512;DHT22;10414;52.074;5.126;2023-12-20T09:06:09;9.30;99.90
20512;DHT22;10414;52.074;5.126;2023-12-20T09:08:36;9.30;99.90
20512;DHT22;10414;52.074;5.126;2023-12-20T09:11:03;9.30;99.90
20512;DHT22;10414;52.074;5.126;2023-12-20T09:13:30;9.50;99.90
20512;DHT22;10414;52.074;5.126;2023-12-20T09:15:58;9.50;99.90
20512;DHT22;10414;52.074;5.126;2023-12-20T09:18:27;9.50;99.90
20512;DHT22;10414;52.074;5.126;2023-12-20T09:20:54;9.50;99.90
20512;DHT22;10414;52.074;5.126;2023-12-20T09:23:21;9.40;99.90
20512;DHT22;10414;52.074;5.126;2023-12-20T09:25:48;9.50;99.90
20512;DHT22;10414;52.074;5.126;2023-12-20T09:28:14;9.50;99.90
20512;DHT22;10414;52.074;5.126;2023-12-20T09:30:42;9.50;99.90
20512;DHT22;10414;52.074;5.126;2023-12-20T09:33:11;9.60;99.90
20512;DHT22;10414;52.074;5.126;2023-12-20T09:35:37;9.70;99.90
20512;DHT22;10414;52.074;5.126;2023-12-20T09:38:04;9.80;99.90
20512;DHT22;10414;52.074;5.126;2023-12-20T09:40:32;9.80;99.90
20512;DHT22;10414;52.074;5.126;2023-12-20T09:43:04;9.70;99.90
20512;DHT22;10414;52.074;5.126;2023-12-20T09:45:31;9.70;99.90
20512;DHT22;10414;52.074;5.126;2023-12-20T09:47:58;9.90;99.90
20512;DHT22;10414;52.074;5.126;2023-12-20T09:50:27;10.00;99.90
20512;DHT22;10414;52.074;5.126;2023-12-20T09:52:58;10.10;99.90
20512;DHT22;10414;52.074;5.126;2023-12-20T09:55:25;10.10;99.90
20512;DHT22;10414;52.074;5.126;2023-12-20T09:57:54;10.10;99.90
20512;DHT22;10414;52.074;5.126;2023-12-20T10:00:21;10.00;99.90
20512;DHT22;10414;52.074;5.126;2023-12-20T10:02:53;10.00;99.90
20512;DHT22;10414;52.074;5.126;2023-12-20T10:05:28;10.00;99.90
20512;DHT22;10414;52.074;5.126;2023-12-20T10:07:55;10.00;99.90
20512;DHT22;10414;52.074;5.126;2023-12-20T10:10:22;10.10;99.90
20512;DHT22;10414;52.074;5.126;2023-12-20T10:13:02;10.20;99.90
20512;DHT22;10414;52.074;5.126;2023-12-20T10:15:29;10.00;99.90
20512;DHT22;10414;52.074;5.126;2023-12-20T10:17:57;10.20;99.90
20512;DHT22;10414;52.074;5.126;2023-12-20T10:20:24;10.30;99.90
20512;DHT22;10414;52.074;5.126;2023-12-20T10:22:53;10.20;99.90
20512;DHT22;10414;52.074;5.126;2023-12-20T10:25:21;10.30;99.90
20512;DHT22;10414;52.074;5.126;2023-12-20T10:30:34;10.20;99.90
20512;DHT22;10414;52.074;5.126;2023-12-20T10:33:01;10.30;99.90
20512;DHT22;10414;52.074;5.126;2023-12-20T10:35:28;10.40;99.90
20512;DHT22;10414;52.074;5.126;2023-12-20T10:37:56;10.30;99.90
20512;DHT22;10414;52.074;5.126;2023-12-20T10:40:25;10.30;99.90
20512;DHT22;10414;52.074;5.126;2023-12-20T10:42:56;10.40;99.90
20512;DHT22;10414;52.074;5.126;2023-12-20T10:45:23;10.30;99.90
20512;DHT22;10414;52.074;5.126;2023-12-20T10:47:50;10.20;99.90
20512;DHT22;10414;52.074;5.126;2023-12-20T10:50:17;10.10;99.90
20512;DHT22;10414;52.074;5.126;2023-12-20T10:52:45;10.00;99.90
20512;DHT22;10414;52.074;5.126;2023-12-20T10:55:14;10.40;99.90
20512;DHT22;10414;52.074;5.126;2023-12-20T10:57:42;10.50;99.90
20512;DHT22;10414;52.074;5.126;2023-12-20T11:00:14;10.60;99.90
20512;DHT22;10414;52.074;5.126;2023-12-20T11:02:42;10.80;99.90
20512;DHT22;10414;52.074;5.126;2023-12-20T11:05:19;10.80;99.90
20512;DHT22;10414;52.074;5.126;2023-12-20T11:07:50;10.80;99.90
20512;DHT22;10414;52.074;5.126;2023-12-20T11:10:23;10.90;99.90
20512;DHT22;10414;52.074;5.126;2023-12-20T11:12:54;11.00;99.90
20512;DHT22;10414;52.074;5.126;2023-12-20T11:15:24;11.20;99.90
20512;DHT22;10414;52.074;5.126;2023-12-20T11:17:55;10.90;99.90
20512;DHT22;10414;52.074;5.126;2023-12-20T11:20:23;11.00;99.90
20512;DHT22;10414;52.074;5.126;2023-12-20T11:22:54;11.00;99.90
20512;DHT22;10414;52.074;5.126;2023-12-20T11:25:23;10.80;99.90
20512;DHT22;10414;52.074;5.126;2023-12-20T11:28:10;10.80;99.90
20512;DHT22;10414;52.074;5.126;2023-12-20T11:30:41;10.90;99.90
20512;DHT22;10414;52.074;5.126;2023-12-20T11:33:08;10.80;99.90
20512;DHT22;10414;52.074;5.126;2023-12-20T11:35:35;10.80;99.90
20512;DHT22;10414;52.074;5.126;2023-12-20T11:38:04;10.90;99.90
20512;DHT22;10414;52.074;5.126;2023-12-20T11:40:34;11.00;99.90
20512;DHT22;10414;52.074;5.126;2023-12-20T11:43:02;10.90;99.90
20512;DHT22;10414;52.074;5.126;2023-12-20T11:45:29;10.90;99.90
20512;DHT22;10414;52.074;5.126;2023-12-20T11:47:57;10.90;99.90
20512;DHT22;10414;52.074;5.126;2023-12-20T11:50:28;11.10;99.90
20512;DHT22;10414;52.074;5.126;2023-12-20T11:52:55;11.20;99.90
20512;DHT22;10414;52.074;5.126;2023-12-20T11:55:23;11.10;99.90
20512;DHT22;10414;52.074;5.126;2023-12-20T11:57:51;11.10;99.90
20512;DHT22;10414;52.074;5.126;2023-12-20T12:00:20;10.90;99.90
20512;DHT22;10414;52.074;5.126;2023-12-20T12:02:57;10.90;99.90
20512;DHT22;10414;52.074;5.126;2023-12-20T12:05:24;10.80;99.90
20512;DHT22;10414;52.074;5.126;2023-12-20T12:07:51;10.80;99.90
20512;DHT22;10414;52.074;5.126;2023-12-20T12:10:18;10.90;99.90
20512;DHT22;10414;52.074;5.126;2023-12-20T12:12:45;11.10;99.90
20512;DHT22;10414;52.074;5.126;2023-12-20T12:15:14;11.00;99.90
20512;DHT22;10414;52.074;5.126;2023-12-20T12:17:41;10.80;99.90
20512;DHT22;10414;52.074;5.126;2023-12-20T12:20:09;10.90;99.90
20512;DHT22;10414;52.074;5.126;2023-12-20T12:22:37;10.80;99.90
20512;DHT22;10414;52.074;5.126;2023-12-20T12:25:10;10.80;99.90
20512;DHT22;10414;52.074;5.126;2023-12-20T12:27:40;10.80;99.90
20512;DHT22;10414;52.074;5.126;2023-12-20T12:30:09;11.00;99.90
20512;DHT22;10414;52.074;5.126;2023-12-20T12:32:39;11.10;99.90
20512;DHT22;10414;52.074;5.126;2023-12-20T12:35:08;10.90;99.90
20512;DHT22;10414;52.074;5.126;2023-12-20T12:37:37;10.90;99.90
20512;DHT22;10414;52.074;5.126;2023-12-20T12:40:05;11.00;99.90
20512;DHT22;10414;52.074;5.126;2023-12-20T12:42:33;11.20;99.90
20512;DHT22;10414;52.074;5.126;2023-12-20T12:45:00;11.00;99.90
20512;DHT22;10414;52.074;5.126;2023-12-20T12:47:26;10.90;99.90
20512;DHT22;10414;52.074;5.126;2023-12-20T12:49:56;11.00;99.90
20512;DHT22;10414;52.074;5.126;2023-12-20T12:52:24;11.00;99.90
20512;DHT22;10414;52.074;5.126;2023-12-20T12:54:50;11.10;99.90
20512;DHT22;10414;52.074;5.126;2023-12-20T12:57:17;11.10;99.90
20512;DHT22;10414;52.074;5.126;2023-12-20T12:59:44;11.10;99.90
20512;DHT22;10414;52.074;5.126;2023-12-20T13:02:12;11.00;99.90
20512;DHT22;10414;52.074;5.126;2023-12-20T13:04:39;10.90;99.90
20512;DHT22;10414;52.074;5.126;2023-12-20T13:07:08;10.90;99.90
20512;DHT22;10414;52.074;5.126;2023-12-20T13:09:36;10.80;99.90
20512;DHT22;10414;52.074;5.126;2023-12-20T13:12:04;10.80;99.90
20512;DHT22;10414;52.074;5.126;2023-12-20T13:14:33;10.80;99.90
20512;DHT22;10414;52.074;5.126;2023-12-20T13:17:00;10.80;99.90
20512;DHT22;10414;52.074;5.126;2023-12-20T13:19:27;10.80;99.90
20512;DHT22;10414;52.074;5.126;2023-12-20T13:21:54;10.80;99.90
20512;DHT22;10414;52.074;5.126;2023-12-20T13:24:22;10.80;99.90
20512;DHT22;10414;52.074;5.126;2023-12-20T13:26:49;10.80;99.90
20512;DHT22;10414;52.074;5.126;2023-12-20T13:29:16;10.80;99.90
20512;DHT22;10414;52.074;5.126;2023-12-20T13:31:43;10.90;99.90
20512;DHT22;10414;52.074;5.126;2023-12-20T13:34:10;10.90;99.90
20512;DHT22;10414;52.074;5.126;2023-12-20T13:36:38;10.60;99.90
20512;DHT22;10414;52.074;5.126;2023-12-20T13:39:05;10.70;99.90
20512;DHT22;10414;52.074;5.126;2023-12-20T13:41:33;10.70;99.90
20512;DHT22;10414;52.074;5.126;2023-12-20T13:44:00;10.70;99.90
20512;DHT22;10414;52.074;5.126;2023-12-20T13:46:29;10.60;99.90
20512;DHT22;10414;52.074;5.126;2023-12-20T13:48:55;10.60;99.90
20512;DHT22;10414;52.074;5.126;2023-12-20T13:51:22;10.60;99.90
20512;DHT22;10414;52.074;5.126;2023-12-20T13:53:49;10.60;99.90
20512;DHT22;10414;52.074;5.126;2023-12-20T13:56:16;10.70;99.90
20512;DHT22;10414;52.074;5.126;2023-12-20T13:58:47;10.60;99.90
20512;DHT22;10414;52.074;5.126;2023-12-20T14:01:14;10.60;99.90
20512;DHT22;10414;52.074;5.126;2023-12-20T14:03:41;10.60;99.90
20512;DHT22;10414;52.074;5.126;2023-12-20T14:06:08;10.80;99.90
20512;DHT22;10414;52.074;5.126;2023-12-20T14:08:35;10.60;99.90
20512;DHT22;10414;52.074;5.126;2023-12-20T14:11:03;10.60;99.90
20512;DHT22;10414;52.074;5.126;2023-12-20T14:13:30;10.60;99.90
20512;DHT22;10414;52.074;5.126;2023-12-20T14:15:58;10.60;99.90
20512;DHT22;10414;52.074;5.126;2023-12-20T14:18:26;10.60;99.90
20512;DHT22;10414;52.074;5.126;2023-12-20T14:20:53;10.50;99.90
20512;DHT22;10414;52.074;5.126;2023-12-20T14:23:20;10.40;99.90
20512;DHT22;10414;52.074;5.126;2023-12-20T14:25:48;10.50;99.90
20512;DHT22;10414;52.074;5.126;2023-12-20T14:28:15;10.60;99.90
20512;DHT22;10414;52.074;5.126;2023-12-20T14:30:42;10.50;99.90
20512;DHT22;10414;52.074;5.126;2023-12-20T14:33:10;10.50;99.90
20512;DHT22;10414;52.074;5.126;2023-12-20T14:35:37;10.70;99.90
20512;DHT22;10414;52.074;5.126;2023-12-20T14:38:04;10.50;99.90
20512;DHT22;10414;52.074;5.126;2023-12-20T14:40:31;10.60;99.90
20512;DHT22;10414;52.074;5.126;2023-12-20T14:42:58;10.60;99.90
20512;DHT22;10414;52.074;5.126;2023-12-20T14:45:25;10.40;99.90
20512;DHT22;10414;52.074;5.126;2023-12-20T14:47:53;10.40;99.90
20512;DHT22;10414;52.074;5.126;2023-12-20T14:50:21;10.40;99.90
20512;DHT22;10414;52.074;5.126;2023-12-20T14:52:48;10.30;99.90
20512;DHT22;10414;52.074;5.126;2023-12-20T14:55:15;10.50;99.90
20512;DHT22;10414;52.074;5.126;2023-12-20T14:57:42;10.40;99.90
20512;DHT22;10414;52.074;5.126;2023-12-20T15:00:09;10.30;99.90
20512;DHT22;10414;52.074;5.126;2023-12-20T15:02:41;10.20;99.90
20512;DHT22;10414;52.074;5.126;2023-12-20T15:05:08;10.30;99.90
20512;DHT22;10414;52.074;5.126;2023-12-20T15:07:37;10.30;99.90
20512;DHT22;10414;52.074;5.126;2023-12-20T15:10:05;10.30;99.90
20512;DHT22;10414;52.074;5.126;2023-12-20T15:12:31;10.40;99.90
20512;DHT22;10414;52.074;5.126;2023-12-20T15:14:59;10.40;99.90
20512;DHT22;10414;52.074;5.126;2023-12-20T15:17:26;10.40;99.90
20512;DHT22;10414;52.074;5.126;2023-12-20T15:19:53;10.30;99.90
20512;DHT22;10414;52.074;5.126;2023-12-20T15:22:21;10.30;99.90
20512;DHT22;10414;52.074;5.126;2023-12-20T15:24:49;10.20;99.90
20512;DHT22;10414;52.074;5.126;2023-12-20T15:27:17;10.40;99.90
20512;DHT22;10414;52.074;5.126;2023-12-20T15:29:44;10.30;99.90
20512;DHT22;10414;52.074;5.126;2023-12-20T15:32:11;10.30;99.90
20512;DHT22;10414;52.074;5.126;2023-12-20T15:34:37;10.40;99.90
20512;DHT22;10414;52.074;5.126;2023-12-20T15:37:04;10.50;99.90
20512;DHT22;10414;52.074;5.126;2023-12-20T15:39:31;10.40;99.90
20512;DHT22;10414;52.074;5.126;2023-12-20T15:41:59;10.40;99.90
20512;DHT22;10414;52.074;5.126;2023-12-20T15:44:26;10.30;99.90